createdAt,value
2022-12-19T00:01:23.513Z,48.27
2022-12-19T00:03:55.941Z,52.77
2022-12-19T00:06:26.051Z,53.40
2022-12-19T00:08:55.771Z,56.60
2022-12-19T00:11:26.194Z,60.53
2022-12-19T00:13:55.237Z,63.63
2022-12-19T00:16:26.323Z,49.93
2022-12-19T00:18:58.246Z,45.73
2022-12-19T00:21:30.155Z,42.40
2022-12-19T00:23:59.984Z,53.13
2022-12-19T00:26:30.986Z,40.03
2022-12-19T00:29:02.450Z,54.47
2022-12-19T00:31:34.413Z,49.33
2022-12-19T00:34:05.238Z,47.90
2022-12-19T00:36:36.173Z,49.40
2022-12-19T00:39:08.459Z,59.73
2022-12-19T00:41:41.481Z,59.53
2022-12-19T00:44:14.033Z,60.97
2022-12-19T00:46:45.172Z,61.23
2022-12-19T00:49:23.708Z,61.40
2022-12-19T00:51:52.886Z,56.90
2022-12-19T00:54:21.851Z,57.60
2022-12-19T00:56:51.927Z,63.33
2022-12-19T00:59:26.349Z,63.17
2022-12-19T01:01:56.659Z,69.70
2022-12-19T01:04:29.263Z,63.47
2022-12-19T01:07:01.944Z,60.50
2022-12-19T01:09:32.659Z,52.73
2022-12-19T01:12:20.467Z,56.40
2022-12-19T01:15:02.903Z,70.17
2022-12-19T01:17:44.311Z,63.97
2022-12-19T01:20:18.167Z,55.93
2022-12-19T01:22:54.407Z,54.67
2022-12-19T01:25:23.184Z,52.53
2022-12-19T01:27:55.319Z,51.40
2022-12-19T01:30:24.677Z,52.67
2022-12-19T01:32:55.035Z,40.70
2022-12-19T01:35:26.554Z,49.17
2022-12-19T01:38:08.196Z,37.70
2022-12-19T01:40:38.257Z,37.37
2022-12-19T01:43:08.568Z,52.40
2022-12-19T01:45:45.194Z,41.87
2022-12-19T01:48:21.816Z,33.93
2022-12-19T01:51:01.902Z,37.50
2022-12-19T01:53:48.716Z,41.80
2022-12-19T01:56:20.781Z,46.23
2022-12-19T01:58:55.389Z,33.80
2022-12-19T02:01:35.889Z,36.73
2022-12-19T02:04:17.150Z,31.40
2022-12-19T02:06:49.666Z,38.53
2022-12-19T02:09:19.084Z,42.43
2022-12-19T02:11:49.855Z,33.07
2022-12-19T02:14:19.516Z,28.07
2022-12-19T02:16:55.710Z,32.43
2022-12-19T02:19:58.770Z,31.53
2022-12-19T02:22:39.031Z,30.77
2022-12-19T02:25:32.842Z,28.40
2022-12-19T02:28:31.960Z,41.40
2022-12-19T02:31:16.566Z,30.40
2022-12-19T02:33:51.350Z,34.27
2022-12-19T02:36:32.438Z,41.17
2022-12-19T02:39:08.553Z,37.07
2022-12-19T02:41:44.363Z,36.93
2022-12-19T02:44:19.652Z,35.80
2022-12-19T02:46:52.025Z,26.53
2022-12-19T02:49:24.180Z,41.23
2022-12-19T02:51:59.589Z,35.90
2022-12-19T02:54:28.074Z,38.13
2022-12-19T02:57:04.293Z,38.23
2022-12-19T02:59:48.269Z,29.43
2022-12-19T03:02:29.129Z,40.90
2022-12-19T03:05:06.329Z,32.77
2022-12-19T03:07:38.779Z,29.53
2022-12-19T03:10:19.748Z,42.83
2022-12-19T03:12:53.773Z,28.83
2022-12-19T03:15:23.503Z,38.53
2022-12-19T03:17:57.441Z,32.10
2022-12-19T03:20:42.803Z,33.77
2022-12-19T03:23:12.746Z,30.57
2022-12-19T03:25:44.671Z,32.27
2022-12-19T03:28:20.500Z,36.83
2022-12-19T03:30:50.632Z,38.07
2022-12-19T03:33:23.690Z,37.13
2022-12-19T03:35:53.799Z,35.97
2022-12-19T03:38:24.469Z,36.83
2022-12-19T03:40:54.015Z,38.57
2022-12-19T03:43:24.272Z,33.27
2022-12-19T03:45:58.284Z,36.77
2022-12-19T03:48:33.981Z,29.10
2022-12-19T03:51:10.692Z,38.33
2022-12-19T03:53:49.806Z,27.07
2022-12-19T03:56:25.705Z,27.40
2022-12-19T03:59:01.631Z,35.43
2022-12-19T04:01:33.907Z,41.60
2022-12-19T04:04:06.258Z,38.77
2022-12-19T04:06:36.144Z,34.53
2022-12-19T04:09:06.050Z,31.33
2022-12-19T04:11:39.495Z,31.30
2022-12-19T04:14:13.782Z,39.23
2022-12-19T04:16:52.290Z,33.43
2022-12-19T04:19:30.018Z,32.17
2022-12-19T04:22:07.805Z,31.27
2022-12-19T04:24:41.709Z,41.17
2022-12-19T04:27:14.271Z,34.07
2022-12-19T04:29:44.526Z,32.73
2022-12-19T04:32:14.469Z,33.70
2022-12-19T04:34:44.824Z,39.07
2022-12-19T04:37:14.418Z,27.93
2022-12-19T04:39:43.691Z,30.83
2022-12-19T04:42:12.341Z,33.17
2022-12-19T04:44:41.063Z,26.60
2022-12-19T04:47:09.621Z,39.30
2022-12-19T04:49:39.313Z,28.77
2022-12-19T04:52:09.715Z,33.70
2022-12-19T04:54:39.268Z,33.67
2022-12-19T04:57:08.398Z,32.83
2022-12-19T04:59:37.745Z,36.70
2022-12-19T05:02:06.863Z,35.33
2022-12-19T05:04:36.144Z,32.63
2022-12-19T05:07:05.466Z,39.00
2022-12-19T05:09:36.163Z,33.37
2022-12-19T05:12:06.591Z,41.30
2022-12-19T05:14:36.005Z,38.87
2022-12-19T05:17:04.947Z,42.30
2022-12-19T05:19:34.375Z,36.27
2022-12-19T05:22:02.908Z,40.27
2022-12-19T05:24:32.328Z,40.93
2022-12-19T05:27:02.948Z,38.73
2022-12-19T05:29:32.428Z,38.93
2022-12-19T05:32:01.573Z,36.87
2022-12-19T05:34:31.178Z,31.13
2022-12-19T05:37:00.043Z,33.07
2022-12-19T05:39:28.897Z,38.57
2022-12-19T05:41:57.957Z,32.07
2022-12-19T05:44:29.225Z,31.77
2022-12-19T05:46:57.932Z,39.47
2022-12-19T05:49:27.692Z,40.20
2022-12-19T05:51:56.254Z,31.63
2022-12-19T05:54:25.418Z,36.67
2022-12-19T05:56:54.660Z,32.97
2022-12-19T05:59:24.408Z,36.73
2022-12-19T06:01:55.261Z,34.07
2022-12-19T06:04:24.150Z,32.47
2022-12-19T06:06:52.850Z,37.73
2022-12-19T06:09:22.188Z,34.33
2022-12-19T06:11:50.847Z,43.47
2022-12-19T06:14:19.630Z,43.20
2022-12-19T06:16:47.957Z,42.10
2022-12-19T06:19:18.107Z,35.87
2022-12-19T06:21:48.431Z,49.43
2022-12-19T06:24:17.492Z,41.83
2022-12-19T06:26:46.662Z,36.80
2022-12-19T06:29:16.210Z,34.53
2022-12-19T06:31:46.199Z,31.83
2022-12-19T06:34:27.281Z,46.83
2022-12-19T06:37:07.924Z,33.50
2022-12-19T06:39:37.161Z,38.33
2022-12-19T06:42:23.515Z,33.07
2022-12-19T06:44:54.137Z,42.27
2022-12-19T06:47:24.979Z,37.93
2022-12-19T06:49:54.403Z,44.57
2022-12-19T06:52:24.453Z,34.07
2022-12-19T06:54:53.906Z,42.83
2022-12-19T06:57:22.886Z,36.77
2022-12-19T06:59:52.142Z,34.97
2022-12-19T07:02:27.572Z,36.37
2022-12-19T07:05:01.234Z,34.27
2022-12-19T07:07:32.074Z,31.53
2022-12-19T07:10:01.739Z,45.57
2022-12-19T07:12:30.729Z,36.60
2022-12-19T07:14:59.940Z,30.97
2022-12-19T07:17:30.432Z,34.90
2022-12-19T07:20:00.678Z,32.97
2022-12-19T07:22:34.600Z,54.33
2022-12-19T07:25:06.167Z,38.03
2022-12-19T07:27:36.343Z,32.83
2022-12-19T07:30:08.707Z,31.77
2022-12-19T07:32:39.427Z,35.97
2022-12-19T07:35:09.227Z,39.90
2022-12-19T07:37:39.957Z,31.27
2022-12-19T07:40:11.419Z,41.37
2022-12-19T07:42:40.723Z,34.70
2022-12-19T07:45:10.803Z,41.30
2022-12-19T07:47:40.220Z,32.47
2022-12-19T07:50:10.395Z,25.17
2022-12-19T07:52:40.855Z,38.43
2022-12-19T07:55:10.943Z,31.67
2022-12-19T07:57:39.683Z,32.43
2022-12-19T08:00:10.673Z,27.67
2022-12-19T08:02:40.482Z,30.20
2022-12-19T08:05:11.613Z,38.20
2022-12-19T08:07:42.576Z,26.00
2022-12-19T08:10:15.055Z,33.87
2022-12-19T08:12:44.343Z,32.73
2022-12-19T08:15:13.635Z,29.23
2022-12-19T08:17:42.339Z,35.27
2022-12-19T08:20:12.802Z,31.60
2022-12-19T08:22:43.197Z,30.73
2022-12-19T08:25:13.710Z,27.83
2022-12-19T08:27:43.495Z,29.30
2022-12-19T08:30:14.433Z,31.43
2022-12-19T08:32:44.948Z,26.73
2022-12-19T08:35:14.473Z,29.33
2022-12-19T08:37:45.030Z,31.33
2022-12-19T08:40:14.521Z,37.87
2022-12-19T08:42:43.852Z,21.83
2022-12-19T08:45:12.878Z,24.33
2022-12-19T08:47:41.827Z,34.23
2022-12-19T08:50:11.767Z,31.13
2022-12-19T08:52:40.790Z,33.83
2022-12-19T08:55:12.128Z,32.20
2022-12-19T08:57:49.580Z,26.90
2022-12-19T09:00:19.321Z,35.47
2022-12-19T09:02:49.804Z,32.07
2022-12-19T09:06:00.269Z,22.97
2022-12-19T09:08:10.413Z,25.50
2022-12-19T09:10:41.964Z,32.97
2022-12-19T09:13:12.349Z,26.40
2022-12-19T09:15:41.424Z,26.40
2022-12-19T09:18:10.594Z,26.60
2022-12-19T09:20:39.931Z,32.23
2022-12-19T09:23:08.726Z,28.63
2022-12-19T09:25:37.367Z,30.93
2022-12-19T09:30:57.456Z,37.13
2022-12-19T09:33:25.965Z,41.13
2022-12-19T09:35:56.887Z,28.63
2022-12-19T09:38:26.997Z,27.70
2022-12-19T09:41:11.074Z,44.57
2022-12-19T09:43:52.145Z,37.40
2022-12-19T09:46:26.551Z,34.50
2022-12-19T09:48:58.055Z,31.93
2022-12-19T09:51:35.667Z,38.63
2022-12-19T09:54:08.699Z,40.27
2022-12-19T09:56:46.034Z,33.40
2022-12-19T09:59:28.156Z,41.43
2022-12-19T10:02:26.504Z,35.13
2022-12-19T10:05:23.254Z,29.20
2022-12-19T10:08:10.497Z,38.30
2022-12-19T10:12:37.283Z,30.97
2022-12-19T10:13:50.761Z,29.93
2022-12-19T10:16:31.492Z,38.33
2022-12-19T10:19:02.917Z,38.37
2022-12-19T10:22:15.802Z,35.70
2022-12-19T10:24:43.825Z,47.83
2022-12-19T10:27:35.294Z,34.30
2022-12-19T10:30:13.938Z,33.67
2022-12-19T10:32:53.340Z,38.33
2022-12-19T10:35:23.872Z,38.73
2022-12-19T10:38:01.022Z,37.93
2022-12-19T10:40:34.873Z,31.63
2022-12-19T10:43:15.269Z,31.63
2022-12-19T10:45:52.372Z,36.97
2022-12-19T10:48:30.978Z,43.53
2022-12-19T10:51:06.311Z,42.80
2022-12-19T10:53:35.612Z,34.87
2022-12-19T10:56:14.392Z,34.73
2022-12-19T10:58:46.140Z,41.80
2022-12-19T11:01:17.043Z,45.63
2022-12-19T11:03:50.232Z,39.63
2022-12-19T11:06:51.212Z,43.77
2022-12-19T11:09:22.857Z,47.17
2022-12-19T11:15:29.775Z,44.60
2022-12-19T11:19:25.867Z,31.60
2022-12-19T11:25:21.777Z,45.33
2022-12-19T11:29:40.543Z,32.27
2022-12-19T11:29:54.360Z,33.93
2022-12-19T11:30:40.817Z,41.90
2022-12-19T11:35:24.692Z,45.43
2022-12-19T11:37:58.359Z,42.40
2022-12-19T11:40:35.256Z,53.07
2022-12-19T11:43:43.286Z,37.43
2022-12-19T11:46:03.840Z,42.23
2022-12-19T11:48:39.605Z,40.43
2022-12-19T11:51:17.281Z,35.33
2022-12-19T11:53:56.387Z,39.87
2022-12-19T11:56:27.984Z,50.33
2022-12-19T11:59:00.796Z,46.00
2022-12-19T12:01:46.480Z,51.43
2022-12-19T12:04:39.880Z,47.07
2022-12-19T12:07:16.934Z,36.57
2022-12-19T12:15:50.503Z,43.10
2022-12-19T12:22:29.132Z,37.60
2022-12-19T12:30:27.219Z,40.93
2022-12-19T12:31:26.006Z,39.97
2022-12-19T12:31:32.251Z,38.83
2022-12-19T12:31:48.509Z,51.53
2022-12-19T12:31:58.471Z,46.90
2022-12-19T12:35:33.126Z,34.23
2022-12-19T12:40:25.208Z,36.03
2022-12-19T12:43:03.768Z,43.67
2022-12-19T12:45:37.097Z,35.87
2022-12-19T12:48:16.132Z,35.00
2022-12-19T12:50:51.267Z,45.17
2022-12-19T12:53:26.812Z,36.93
2022-12-19T12:56:00.120Z,34.00
2022-12-19T12:59:00.970Z,39.93
2022-12-19T13:01:36.406Z,42.20
2022-12-19T13:04:18.176Z,36.80
2022-12-19T13:07:06.409Z,34.93
2022-12-19T13:09:37.768Z,43.63
2022-12-19T13:12:36.704Z,38.90
2022-12-19T13:15:48.028Z,48.17
2022-12-19T13:18:32.208Z,38.10
2022-12-19T13:21:03.315Z,40.27
2022-12-19T13:24:16.279Z,34.50
2022-12-19T13:26:52.417Z,34.97
2022-12-19T13:29:53.816Z,32.27
2022-12-19T13:32:23.997Z,34.23
2022-12-19T13:34:59.862Z,38.67
2022-12-19T13:39:49.531Z,47.20
2022-12-19T13:40:51.554Z,34.13
2022-12-19T13:43:41.753Z,36.53
2022-12-19T13:46:26.985Z,41.47
2022-12-19T13:48:58.801Z,38.93
2022-12-19T13:51:27.404Z,33.63
2022-12-19T13:53:59.882Z,41.23
2022-12-19T13:56:31.982Z,35.40
2022-12-19T13:59:03.658Z,34.37
2022-12-19T14:01:36.804Z,44.20
2022-12-19T14:04:08.922Z,31.63
2022-12-19T14:06:42.450Z,42.50
2022-12-19T14:11:27.367Z,44.40
2022-12-19T14:13:43.179Z,42.83
2022-12-19T14:15:33.487Z,33.70
2022-12-19T14:18:43.329Z,39.90
2022-12-19T14:22:11.945Z,50.23
2022-12-19T14:24:18.684Z,45.87
2022-12-19T14:28:18.228Z,44.73
2022-12-19T14:30:27.464Z,36.47
2022-12-19T14:33:40.605Z,51.80
2022-12-19T14:36:06.579Z,35.97
2022-12-19T14:39:24.219Z,45.00
2022-12-19T14:41:40.420Z,44.57
2022-12-19T14:52:36.192Z,40.47
2022-12-19T14:54:02.818Z,43.03
2022-12-19T14:54:07.518Z,47.40
2022-12-19T14:54:26.805Z,50.27
2022-12-19T14:56:12.903Z,53.60
2022-12-19T14:58:54.112Z,36.80
2022-12-19T15:01:25.473Z,40.50
2022-12-19T15:04:51.843Z,43.27
2022-12-19T15:07:07.549Z,34.30
2022-12-19T15:11:03.605Z,38.83
2022-12-19T15:14:51.283Z,43.70
2022-12-19T15:15:45.773Z,47.23
2022-12-19T15:18:27.057Z,42.13
2022-12-19T15:20:57.418Z,49.83
2022-12-19T15:23:26.632Z,47.30
2022-12-19T15:26:06.582Z,49.33
2022-12-19T15:28:42.144Z,51.97
2022-12-19T15:31:29.914Z,58.13
2022-12-19T15:36:47.307Z,55.67
2022-12-19T15:39:16.144Z,44.43
2022-12-19T15:41:48.301Z,51.57
2022-12-19T15:44:19.949Z,56.27
2022-12-19T15:46:49.771Z,49.90
2022-12-19T15:49:20.272Z,52.07
2022-12-19T15:51:49.388Z,52.10
2022-12-19T15:57:17.642Z,52.50
2022-12-19T15:59:46.717Z,51.77
2022-12-19T16:02:19.321Z,54.93
2022-12-19T16:04:51.261Z,58.10
2022-12-19T16:07:21.844Z,42.07
2022-12-19T16:09:50.974Z,48.33
2022-12-19T16:12:23.034Z,51.60
2022-12-19T16:14:59.183Z,47.43
2022-12-19T16:17:30.057Z,41.77
2022-12-19T16:19:59.326Z,46.47
2022-12-19T16:22:30.083Z,45.87
2022-12-19T16:24:58.669Z,45.73
2022-12-19T16:27:31.804Z,47.17
2022-12-19T16:30:11.111Z,41.40
2022-12-19T16:32:41.776Z,45.00
2022-12-19T16:35:23.838Z,37.67
2022-12-19T16:37:57.387Z,44.93
2022-12-19T16:40:27.581Z,41.37
2022-12-19T16:43:06.351Z,47.77
2022-12-19T16:45:35.833Z,44.53
2022-12-19T16:48:04.562Z,38.93
2022-12-19T16:50:33.311Z,43.57
2022-12-19T16:53:01.512Z,41.87
2022-12-19T16:55:30.691Z,38.93
2022-12-19T16:58:02.412Z,45.23
2022-12-19T17:00:31.618Z,38.83
2022-12-19T17:03:04.149Z,49.03
2022-12-19T17:05:35.237Z,44.53
2022-12-19T17:08:03.541Z,44.67
2022-12-19T17:10:34.173Z,32.13
2022-12-19T17:13:04.916Z,38.80
2022-12-19T17:15:36.802Z,41.07
2022-12-19T17:18:12.278Z,43.43
2022-12-19T17:20:43.877Z,39.93
2022-12-19T17:23:16.873Z,53.53
2022-12-19T17:25:45.528Z,45.27
2022-12-19T17:28:15.918Z,46.13
2022-12-19T17:30:50.118Z,38.17
2022-12-19T17:33:19.493Z,43.80
2022-12-19T17:35:48.690Z,43.17
2022-12-19T17:38:19.100Z,37.50
2022-12-19T17:40:47.799Z,42.23
2022-12-19T17:43:17.986Z,35.03
2022-12-19T17:45:46.820Z,42.83
2022-12-19T17:48:26.345Z,44.43
2022-12-19T17:50:55.522Z,44.43
2022-12-19T17:53:24.437Z,38.93
2022-12-19T17:55:53.838Z,39.17
2022-12-19T17:58:23.793Z,44.93
2022-12-19T18:00:53.608Z,39.60
2022-12-19T18:03:24.307Z,40.83
2022-12-19T18:05:54.904Z,38.77
2022-12-19T18:08:26.539Z,43.70
2022-12-19T18:10:56.592Z,39.33
2022-12-19T18:13:27.814Z,42.30
2022-12-19T18:15:58.973Z,38.10
2022-12-19T18:18:30.110Z,38.13
2022-12-19T18:20:59.916Z,41.87
2022-12-19T18:23:30.477Z,41.50
2022-12-19T18:26:02.347Z,41.60
2022-12-19T18:28:32.931Z,35.53
2022-12-19T18:31:03.429Z,35.10
2022-12-19T18:33:37.947Z,41.07
2022-12-19T18:36:08.447Z,34.13
2022-12-19T18:38:36.743Z,36.60
2022-12-19T18:41:05.503Z,33.53
2022-12-19T18:43:35.331Z,39.67
2022-12-19T18:46:04.020Z,35.83
2022-12-19T18:48:34.840Z,35.80
2022-12-19T18:51:04.207Z,36.10
2022-12-19T18:53:35.590Z,42.80
2022-12-19T18:56:06.744Z,37.37
2022-12-19T18:58:37.267Z,38.27
2022-12-19T19:01:08.419Z,38.67
2022-12-19T19:03:40.022Z,35.10
2022-12-19T19:06:18.952Z,28.73
2022-12-19T19:08:48.231Z,33.10
2022-12-19T19:11:16.899Z,35.30
2022-12-19T19:13:46.752Z,40.70
2022-12-19T19:16:19.253Z,32.10
2022-12-19T19:18:50.898Z,35.70
2022-12-19T19:21:20.527Z,33.93
2022-12-19T19:23:52.639Z,32.53
2022-12-19T19:26:21.224Z,31.20
2022-12-19T19:28:52.737Z,32.70
2022-12-19T19:31:24.690Z,47.50
2022-12-19T19:33:57.686Z,31.07
2022-12-19T19:36:31.071Z,46.30
2022-12-19T19:38:59.778Z,39.17
2022-12-19T19:41:29.950Z,29.07
2022-12-19T19:43:59.936Z,32.80
2022-12-19T19:46:40.047Z,36.70
2022-12-19T19:49:08.389Z,32.33
2022-12-19T19:51:37.337Z,28.30
2022-12-19T19:54:05.932Z,34.07
2022-12-19T19:56:34.765Z,37.73
2022-12-19T19:59:04.842Z,30.13
2022-12-19T20:01:33.802Z,40.73
2022-12-19T20:04:02.430Z,38.70
2022-12-19T20:06:31.315Z,34.67
2022-12-19T20:08:59.769Z,32.23
2022-12-19T20:11:28.561Z,37.30
2022-12-19T20:13:57.179Z,29.03
2022-12-19T20:16:27.205Z,39.30
2022-12-19T20:18:55.505Z,35.40
2022-12-19T20:21:24.860Z,36.83
2022-12-19T20:23:53.257Z,27.10
2022-12-19T20:26:22.011Z,35.07
2022-12-19T20:28:51.750Z,34.57
2022-12-19T20:31:22.136Z,31.57
2022-12-19T20:33:53.184Z,34.23
2022-12-19T20:36:22.752Z,37.27
2022-12-19T20:38:51.689Z,36.00
2022-12-19T20:41:20.483Z,31.23
2022-12-19T20:43:49.549Z,46.13
2022-12-19T20:46:20.192Z,52.97
2022-12-19T20:48:49.688Z,34.93
2022-12-19T20:51:21.697Z,38.37
2022-12-19T20:53:52.533Z,35.80
2022-12-19T20:56:23.065Z,33.57
2022-12-19T20:58:54.416Z,34.63
2022-12-19T21:01:25.198Z,42.40
2022-12-19T21:03:54.318Z,34.63
2022-12-19T21:06:27.033Z,35.80
2022-12-19T21:08:56.186Z,30.00
2022-12-19T21:11:26.508Z,34.07
2022-12-19T21:13:55.340Z,42.87
2022-12-19T21:16:25.117Z,31.77
2022-12-19T21:18:53.700Z,34.07
2022-12-19T21:21:25.409Z,35.13
2022-12-19T21:23:55.025Z,36.87
2022-12-19T21:26:26.714Z,29.07
2022-12-19T21:28:57.919Z,29.50
2022-12-19T21:31:29.273Z,29.03
2022-12-19T21:34:00.479Z,39.13
2022-12-19T21:36:32.115Z,35.53
2022-12-19T21:39:02.066Z,29.43
2022-12-19T21:41:31.136Z,40.90
2022-12-19T21:44:00.725Z,30.97
2022-12-19T21:46:33.013Z,34.17
2022-12-19T21:49:03.023Z,34.60
2022-12-19T21:51:33.491Z,46.33
2022-12-19T21:54:04.915Z,25.33
2022-12-19T21:56:35.506Z,36.30
2022-12-19T21:59:06.608Z,31.53
2022-12-19T22:01:36.167Z,28.93
2022-12-19T22:04:07.114Z,31.33
2022-12-19T22:06:38.555Z,29.67
2022-12-19T22:09:08.479Z,34.47
2022-12-19T22:11:37.695Z,28.60
2022-12-19T22:14:06.844Z,31.23
2022-12-19T22:16:36.479Z,29.67
2022-12-19T22:19:05.766Z,30.77
2022-12-19T22:21:37.158Z,31.57
2022-12-19T22:24:06.055Z,30.83
2022-12-19T22:26:35.607Z,26.90
2022-12-19T22:29:09.359Z,36.70
2022-12-19T22:31:39.581Z,30.13
2022-12-19T22:34:09.612Z,33.30
2022-12-19T22:36:41.835Z,27.50
2022-12-19T22:39:12.477Z,24.40
2022-12-19T22:41:42.285Z,28.73
2022-12-19T22:44:16.870Z,21.70
2022-12-19T22:46:46.111Z,22.30
2022-12-19T22:49:15.008Z,27.70
2022-12-19T22:51:45.276Z,30.53
2022-12-19T22:54:15.147Z,31.60
2022-12-19T22:56:43.885Z,23.30
2022-12-19T22:59:13.695Z,32.07
2022-12-19T23:01:44.520Z,23.97
2022-12-19T23:04:16.122Z,24.80
2022-12-19T23:06:46.782Z,35.03
2022-12-19T23:09:18.713Z,26.17
2022-12-19T23:11:49.654Z,27.37
2022-12-19T23:14:20.137Z,33.80
2022-12-19T23:16:49.602Z,33.87
2022-12-19T23:19:18.818Z,30.10
2022-12-19T23:21:48.802Z,34.33
2022-12-19T23:24:17.215Z,27.43
2022-12-19T23:26:46.461Z,31.73
2022-12-19T23:29:16.260Z,30.70
2022-12-19T23:31:46.827Z,30.20
2022-12-19T23:34:16.147Z,30.03
2022-12-19T23:37:10.071Z,33.60
2022-12-19T23:39:35.099Z,28.10
2022-12-19T23:42:03.678Z,33.80
2022-12-19T23:44:32.055Z,27.40
2022-12-19T23:47:03.542Z,21.87
2022-12-19T23:49:33.314Z,34.13
2022-12-19T23:52:01.964Z,32.73
2022-12-19T23:54:30.885Z,23.70
2022-12-19T23:57:00.973Z,29.37
2022-12-19T23:59:29.258Z,31.53
